createdAt,value
2023-04-30T00:01:16.580Z,100534.27
2023-04-30T00:03:08.446Z,100534.80
2023-04-30T00:04:59.706Z,100533.62
2023-04-30T00:06:51.594Z,100537.92
2023-04-30T00:08:43.338Z,100539.67
2023-04-30T00:10:34.950Z,100542.60
2023-04-30T00:12:26.919Z,100541.09
2023-04-30T00:14:18.098Z,100541.02
2023-04-30T00:16:09.696Z,100543.27
2023-04-30T00:18:01.856Z,100540.80
2023-04-30T00:19:54.135Z,100543.22
2023-04-30T00:21:45.964Z,100543.23
2023-04-30T00:23:37.551Z,100543.97
2023-04-30T00:25:29.161Z,100546.73
2023-04-30T18:16:14.286Z,100821.52
2023-04-30T18:18:06.484Z,100821.66
2023-04-30T18:19:58.203Z,100825.25
2023-04-30T18:21:52.734Z,100827.41
2023-04-30T18:23:44.426Z,100829.31
2023-04-30T18:25:37.287Z,100832.77
2023-04-30T18:27:29.210Z,100835.08
2023-04-30T18:29:20.757Z,100836.08
2023-04-30T18:31:12.087Z,100835.20
2023-04-30T18:33:04.910Z,100835.36
2023-04-30T18:34:56.896Z,100839.55
2023-04-30T18:36:49.692Z,100835.18
2023-04-30T18:38:41.131Z,100838.70
2023-04-30T18:40:32.992Z,100845.63
2023-04-30T18:42:24.903Z,100850.33
2023-04-30T18:44:17.379Z,100853.89
2023-04-30T18:46:09.144Z,100855.54
2023-04-30T18:48:01.056Z,100857.40
2023-04-30T18:49:53.375Z,100858.71
2023-04-30T18:51:45.028Z,100855.95
2023-04-30T18:53:36.848Z,100860.91
2023-04-30T18:55:28.560Z,100861.26
2023-04-30T18:57:20.463Z,100864.77
2023-04-30T18:59:12.528Z,100864.56
2023-04-30T19:01:04.647Z,100865.61
2023-04-30T19:02:56.381Z,100865.42
2023-04-30T19:04:49.741Z,100868.20
2023-04-30T19:06:41.965Z,100869.39
2023-04-30T19:08:34.040Z,100867.96
2023-04-30T19:10:25.231Z,100870.01
2023-04-30T19:12:16.700Z,100869.37
2023-04-30T19:14:08.402Z,100869.56
2023-04-30T19:16:04.448Z,100871.17
2023-04-30T19:17:56.031Z,100872.33
2023-04-30T19:19:47.515Z,100871.60
2023-04-30T19:21:39.040Z,100870.89
2023-04-30T19:23:36.057Z,100872.70
2023-04-30T19:25:28.083Z,100876.08
2023-04-30T19:27:20.099Z,100873.63
2023-04-30T19:29:11.968Z,100872.38
2023-04-30T19:31:04.151Z,100878.69
2023-04-30T19:32:55.859Z,100881.36
2023-04-30T19:34:47.292Z,100880.93
2023-04-30T19:36:40.240Z,100883.02
2023-04-30T19:38:31.874Z,100880.84
2023-04-30T19:40:23.586Z,100880.05
2023-04-30T19:42:15.489Z,100882.98
2023-04-30T19:44:08.059Z,100882.26
2023-04-30T19:45:59.910Z,100882.35
2023-04-30T19:47:51.648Z,100883.34
2023-04-30T19:49:44.726Z,100886.27
2023-04-30T19:51:36.192Z,100886.63
2023-04-30T19:53:27.431Z,100889.92
2023-04-30T19:55:19.226Z,100894.13
2023-04-30T19:57:11.033Z,100895.92
2023-04-30T19:59:02.569Z,100893.95
2023-04-30T20:00:55.985Z,100894.50
2023-04-30T20:02:47.828Z,100891.98
2023-04-30T20:04:39.516Z,100894.02
2023-04-30T20:06:31.711Z,100898.52
2023-04-30T20:08:23.379Z,100899.95
2023-04-30T20:10:15.159Z,100904.67
2023-04-30T20:12:07.023Z,100903.23
2023-04-30T20:13:58.577Z,100906.98
2023-04-30T20:15:50.493Z,100907.88
2023-04-30T20:17:42.379Z,100912.88
2023-04-30T20:19:33.836Z,100917.39
2023-04-30T20:21:26.188Z,100918.22
2023-04-30T20:23:17.946Z,100918.87
2023-04-30T20:25:10.107Z,100920.33
2023-04-30T20:27:01.791Z,100917.18
2023-04-30T20:28:53.723Z,100917.88
2023-04-30T20:30:45.717Z,100918.70
2023-04-30T20:32:39.029Z,100917.35
2023-04-30T20:34:32.498Z,100921.17
2023-04-30T20:36:24.022Z,100920.19
2023-04-30T20:38:19.635Z,100919.96
2023-04-30T20:40:11.752Z,100925.84
2023-04-30T20:42:04.057Z,100930.33
2023-04-30T20:43:56.849Z,100930.02
2023-04-30T20:45:48.469Z,100932.95
2023-04-30T20:47:40.622Z,100933.88
2023-04-30T20:49:32.198Z,100933.16
2023-04-30T20:51:23.997Z,100934.36
2023-04-30T20:53:15.548Z,100931.80
2023-04-30T20:55:07.558Z,100933.45
2023-04-30T20:56:58.915Z,100931.02
2023-04-30T20:58:50.289Z,100931.84
2023-04-30T21:00:42.218Z,100933.02
2023-04-30T21:02:34.190Z,100936.08
2023-04-30T21:04:25.757Z,100930.27
2023-04-30T21:06:18.055Z,100930.79
2023-04-30T21:08:09.419Z,100927.50
2023-04-30T21:10:02.176Z,100935.80
2023-04-30T21:11:53.891Z,100934.52
2023-04-30T21:13:45.847Z,100936.86
2023-04-30T21:15:40.034Z,100939.02
2023-04-30T21:17:31.924Z,100935.05
2023-04-30T21:19:23.996Z,100935.08
2023-04-30T21:21:17.085Z,100935.21
2023-04-30T21:23:08.873Z,100934.73
2023-04-30T21:25:00.118Z,100934.02
2023-04-30T21:26:51.673Z,100936.70
2023-04-30T21:28:43.199Z,100935.90
2023-04-30T21:30:36.505Z,100937.16
2023-04-30T21:32:28.298Z,100940.31
2023-04-30T21:34:20.194Z,100944.09
2023-04-30T21:36:12.346Z,100944.55
2023-04-30T21:38:04.039Z,100943.44
2023-04-30T21:39:56.818Z,100944.98
2023-04-30T21:41:49.138Z,100942.55
2023-04-30T21:43:44.113Z,100940.86
2023-04-30T21:45:35.831Z,100943.29
2023-04-30T21:47:27.697Z,100943.08
2023-04-30T21:49:19.268Z,100943.08
2023-04-30T21:51:12.980Z,100947.12
2023-04-30T21:53:05.128Z,100945.51
2023-04-30T21:54:56.602Z,100946.02
2023-04-30T21:56:48.441Z,100950.52
2023-04-30T21:58:39.905Z,100951.90
2023-04-30T22:00:31.525Z,100952.23
2023-04-30T22:04:25.386Z,100955.70
2023-04-30T22:06:16.977Z,100956.94
2023-04-30T22:08:09.041Z,100957.97
2023-04-30T22:10:02.834Z,100956.80
2023-04-30T22:11:54.428Z,100959.00
2023-04-30T22:13:46.240Z,100959.52
2023-04-30T22:15:47.659Z,100957.40
2023-04-30T22:17:43.410Z,100961.17
2023-04-30T22:19:35.237Z,100962.05
2023-04-30T22:21:26.867Z,100955.97
2023-04-30T22:23:20.687Z,100956.89
2023-04-30T22:25:12.490Z,100953.34
2023-04-30T22:27:04.894Z,100949.95
2023-04-30T22:28:57.249Z,100952.10
2023-04-30T22:30:48.954Z,100956.00
2023-04-30T22:32:40.803Z,100954.29
2023-04-30T22:34:38.850Z,100954.39
2023-04-30T22:36:30.398Z,100960.63
2023-04-30T22:38:21.975Z,100958.92
2023-04-30T22:40:13.995Z,100956.70
2023-04-30T22:42:05.799Z,100959.16
2023-04-30T22:43:57.364Z,100960.49
2023-04-30T22:45:49.238Z,100961.62
2023-04-30T22:47:41.783Z,100958.97
2023-04-30T22:49:34.391Z,100963.95
2023-04-30T22:51:27.071Z,100958.51
2023-04-30T22:53:18.833Z,100952.66
2023-04-30T22:55:11.016Z,100959.39
2023-04-30T22:57:03.395Z,100958.57
2023-04-30T22:58:54.984Z,100962.23
2023-04-30T23:00:46.650Z,100955.23
2023-04-30T23:02:38.442Z,100958.98
2023-04-30T23:04:32.538Z,100962.33
2023-04-30T23:06:24.144Z,100962.36
2023-04-30T23:08:15.713Z,100963.45
2023-04-30T23:10:07.768Z,100960.80
2023-04-30T23:11:59.437Z,100962.56
2023-04-30T23:13:51.033Z,100964.91
2023-04-30T23:15:44.100Z,100961.12
2023-04-30T23:17:36.886Z,100963.92
2023-04-30T23:19:28.461Z,100963.18
2023-04-30T23:21:19.874Z,100964.25
2023-04-30T23:23:11.348Z,100962.28
2023-04-30T23:25:03.173Z,100960.25
2023-04-30T23:26:55.324Z,100958.63
2023-04-30T23:28:46.980Z,100959.43
2023-04-30T23:30:39.368Z,100956.89
2023-04-30T23:32:31.607Z,100958.94
2023-04-30T23:34:23.549Z,100958.34
2023-04-30T23:36:15.368Z,100958.23
2023-04-30T23:38:08.311Z,100955.98
2023-04-30T23:40:01.171Z,100954.88
2023-04-30T23:41:52.948Z,100953.10
2023-04-30T23:43:44.869Z,100955.30
2023-04-30T23:45:40.467Z,100958.30
2023-04-30T23:47:36.335Z,100954.27
2023-04-30T23:49:28.262Z,100952.77
2023-04-30T23:51:21.617Z,100950.28
2023-04-30T23:53:14.288Z,100950.67
2023-04-30T23:55:06.365Z,100942.16
2023-04-30T23:56:58.726Z,100940.33
2023-04-30T23:58:50.379Z,100936.59
